Varysburg, New York
Current Conditions -  °F | °C
As of 1:54 AM on Friday 31 Oct 2014 (Local Time) from KBUF Reporting Station
Overcast Overcast  
Wind Chill: 39°   Ceiling: 4100
Heat Index: 43°   Visibility: 10mi
Dew Point: 36°   Wind: 6mph
Humidity: 76%   Direction: 140°SE
Pressure: 30"   Gusts: NA
Location:  42.76°N, 78.31°W
Report Text: KBUF 310554Z 14005KT 10SM BKN041 OVC085 06/02 A3000 RMK AO2 SLP162 T00610022 10083 20061 56009
Loading
Personal Weather Stations






























Interactive Weather Map
Tropical Storm Tracking
New forecast layout! Learn more

10-Day Weather Forecast

Advertisements
Track Severe Weather on mobile